Home   Weather   Amasa Back   Past weeks
Flag for USA

Past Weather in Amasa Back, Utah, USA — Yesterday and Last 2 Weeks

Currently: 58 °F. Clear. (Weather station: Canyonlands Field, USA). See more current weather

Past Weather in Amasa Back — Graph

°F

Amasa Back Temperature Yesterday

Maximum temperature yesterday: 71 °F (at 3:53 pm)
Minimum temperature yesterday: 54 °F (at 8:53 pm)
Average temperature yesterday: 63 °F

High & Low Weather Summary for the Past Weeks

 TemperatureHumidityPressure
High97 °F (Sep 10, 4:53 pm)86% (Sep 12, 4:53 am)30.19 "Hg (Sep 12, 4:53 am)
Low53 °F (Sep 8, 5:53 am)6% (Sep 17, 4:53 pm)29.67 "Hg (Sep 19, 6:53 pm)
Average73 °F31%29.91 "Hg
* Reported Sep 5 10:53 pm — Sep 20 10:53 pm, Amasa Back. Weather by CustomWeather, © 2021

Note: Actual official high and low records may vary slightly from our data, if they occured in-between our weather recording intervals... More about our weather records

Amasa Back Weather History for the Previous 24 Hours

Scroll right to see more
 ConditionsComfort  
Time TempWeatherWind HumidityBarometerVisibility
10:53 pm
Mon, Sep 20
58 °FClear.14 mph21%30.15 "Hg10 mi
9:53 pm60 °FClear.13 mph16%30.14 "Hg10 mi
8:53 pm54 °FClear.6 mph23%30.14 "Hg10 mi
7:53 pm64 °FClear.8 mph13%30.08 "Hg10 mi
6:53 pm70 °FSunny.8 mph11%30.05 "Hg10 mi
5:53 pm71 °FSunny.7 mph10%30.05 "Hg10 mi
4:53 pm71 °FSunny.6 mph12%30.05 "Hg10 mi
3:53 pm71 °FSunny.9 mph10%30.06 "Hg10 mi
2:53 pm70 °FSunny.3 mph13%30.05 "Hg10 mi
1:53 pm68 °FSunny.5 mph14%30.07 "Hg10 mi
12:53 pm67 °FSunny.6 mph16%30.06 "Hg10 mi
11:53 am65 °FSunny.3 mph20%30.06 "Hg10 mi
10:53 am65 °FSunny.13 mph19%30.05 "Hg10 mi
9:53 am63 °FSunny.16 mph21%30.04 "Hg10 mi
8:53 am60 °FSunny.20 mph23%30.01 "Hg10 mi
7:53 am58 °FSunny.16 mph26%30.00 "Hg10 mi
6:53 am57 °FClear.14 mph27%29.98 "Hg10 mi
5:53 am55 °FClear.10 mph35%29.96 "Hg10 mi
4:53 am56 °FClear.8 mph36%29.92 "Hg10 mi
3:53 am59 °FClear.15 mph32%29.87 "Hg10 mi
2:53 am62 °FClear.17 mph30%29.85 "Hg10 mi
1:53 am61 °FClear.10 mph35%29.83 "Hg10 mi
12:53 am65 °FClear.15 mph31%29.79 "Hg10 mi
Weather by CustomWeather, © 2021

See weather overview